createdAt,value
2019-06-27T00:01:13.032Z,155237.33
2019-06-27T00:03:41.602Z,155220.09
2019-06-27T00:06:10.146Z,155239.97
2019-06-27T00:08:38.789Z,155236.02
2019-06-27T00:11:07.338Z,155205.55
2019-06-27T00:13:35.834Z,155165.81
2019-06-27T00:16:04.333Z,155107.59
2019-06-27T00:18:32.866Z,155106.22
2019-06-27T00:21:01.424Z,155094.31
2019-06-27T00:23:29.971Z,155115.50
2019-06-27T00:25:58.598Z,155082.41
2019-06-27T00:28:27.243Z,155050.64
2019-06-27T00:30:58.885Z,155001.59
2019-06-27T00:33:27.458Z,154935.45
2019-06-27T00:35:56.003Z,154954.00
2019-06-27T00:38:24.529Z,154968.53
2019-06-27T00:40:53.094Z,154934.14
2019-06-27T00:43:21.664Z,154942.09
2019-06-27T00:45:50.200Z,154923.55
2019-06-27T00:48:18.776Z,154891.80
2019-06-27T00:50:47.293Z,154906.33
2019-06-27T00:53:15.921Z,154893.13
2019-06-27T00:55:44.435Z,154869.31
2019-06-27T00:58:13.026Z,154844.16
2019-06-27T01:00:41.591Z,154812.36
2019-06-27T01:03:10.167Z,154822.94
2019-06-27T01:05:38.805Z,154846.83
2019-06-27T01:08:07.350Z,154807.09
2019-06-27T01:10:35.856Z,154764.77
2019-06-27T01:13:04.447Z,154791.19
2019-06-27T01:15:33.104Z,154760.77
2019-06-27T01:18:01.638Z,154706.56
2019-06-27T01:20:30.124Z,154705.25
2019-06-27T01:22:58.684Z,154672.19
2019-06-27T01:25:27.290Z,154662.94
2019-06-27T01:27:55.883Z,154618.00
2019-06-27T01:30:24.618Z,154590.16
2019-06-27T01:32:53.179Z,154542.56
2019-06-27T01:35:21.675Z,154547.88
2019-06-27T01:37:50.259Z,154542.56
2019-06-27T01:40:19.148Z,154497.64
2019-06-27T01:42:47.888Z,154471.23
2019-06-27T01:45:25.357Z,154463.30
2019-06-27T01:47:53.940Z,154455.36
2019-06-27T01:50:22.434Z,154426.28
2019-06-27T01:52:53.495Z,154394.56
2019-06-27T01:55:22.008Z,154399.87
2019-06-27T01:57:50.591Z,154377.42
2019-06-27T02:00:19.581Z,154382.69
2019-06-27T02:02:48.505Z,154381.38
2019-06-27T02:05:17.206Z,154362.81
2019-06-27T02:07:45.795Z,154341.67
2019-06-27T02:10:14.529Z,154331.11
2019-06-27T02:12:43.120Z,154278.28
2019-06-27T02:15:11.984Z,154295.47
2019-06-27T02:17:40.612Z,154282.22
2019-06-27T02:20:10.413Z,154296.78
2019-06-27T02:22:38.980Z,154299.41
2019-06-27T02:25:08.095Z,154312.61
2019-06-27T02:27:36.839Z,154307.34
2019-06-27T02:30:07.231Z,154276.97
2019-06-27T02:32:35.732Z,154298.09
2019-06-27T02:35:06.555Z,154286.22
2019-06-27T02:37:35.076Z,154287.53
2019-06-27T02:40:05.705Z,154296.78
2019-06-27T02:42:34.326Z,154267.72
2019-06-27T02:45:03.111Z,154278.28
2019-06-27T02:47:31.633Z,154258.47
2019-06-27T02:50:00.196Z,154267.72
2019-06-27T02:52:28.699Z,154266.41
2019-06-27T02:54:58.758Z,154267.72
2019-06-27T02:57:27.272Z,154230.72
2019-06-27T02:59:55.874Z,154239.97
2019-06-27T03:02:24.359Z,154230.72
2019-06-27T03:04:52.914Z,154220.16
2019-06-27T03:07:21.456Z,154216.22
2019-06-27T03:09:49.971Z,154209.59
2019-06-27T03:12:18.563Z,154180.58
2019-06-27T03:14:47.177Z,154204.34
2019-06-27T03:17:15.671Z,154191.14
2019-06-27T03:19:44.251Z,154170.02
2019-06-27T03:22:12.732Z,154172.66
2019-06-27T03:24:41.364Z,154146.22
2019-06-27T03:27:09.855Z,154159.45
2019-06-27T03:29:38.376Z,154156.78
2019-06-27T03:32:06.949Z,154143.59
2019-06-27T03:34:35.519Z,154135.66
2019-06-27T03:37:04.021Z,154093.38
2019-06-27T03:39:32.697Z,154028.70
2019-06-27T03:42:01.426Z,154045.88
2019-06-27T03:44:30.009Z,154065.69
2019-06-27T03:46:58.527Z,154072.25
2019-06-27T03:49:27.046Z,154088.11
2019-06-27T03:51:55.583Z,154056.44
2019-06-27T03:54:24.113Z,154006.28
2019-06-27T03:56:52.731Z,154024.77
2019-06-27T03:59:21.309Z,153970.62
2019-06-27T04:01:49.799Z,153975.92
2019-06-27T04:04:18.394Z,153961.44
2019-06-27T04:06:46.891Z,153973.30
2019-06-27T04:09:15.412Z,153968.00
2019-06-27T04:11:43.994Z,153954.81
2019-06-27T04:14:13.995Z,153953.50
2019-06-27T04:16:42.665Z,153941.63
2019-06-27T04:19:11.214Z,153946.89
2019-06-27T04:21:39.789Z,153978.55
2019-06-27T04:24:08.414Z,153946.89
2019-06-27T04:26:36.944Z,153957.44
2019-06-27T04:29:05.621Z,153974.61
2019-06-27T04:31:34.176Z,153964.06
2019-06-27T04:34:02.749Z,153937.64
2019-06-27T04:36:31.247Z,153916.53
2019-06-27T04:38:59.765Z,153929.77
2019-06-27T04:41:28.322Z,153953.50
2019-06-27T04:43:56.814Z,153961.44
2019-06-27T04:46:25.492Z,153990.42
2019-06-27T04:48:53.993Z,154022.09
2019-06-27T04:51:22.549Z,154032.64
2019-06-27T04:53:51.056Z,154036.64
2019-06-27T04:56:19.564Z,154032.64
2019-06-27T04:58:48.056Z,154045.88
2019-06-27T05:01:16.598Z,154076.25
2019-06-27T05:03:45.167Z,154098.67
2019-06-27T05:06:13.807Z,154067.00
2019-06-27T05:08:42.311Z,154051.14
2019-06-27T05:11:10.847Z,154056.44
2019-06-27T05:13:39.440Z,154030.02
2019-06-27T05:16:07.965Z,154020.78
2019-06-27T05:18:36.487Z,153990.42
2019-06-27T05:21:05.075Z,153998.34
2019-06-27T05:23:33.579Z,154064.31
2019-06-27T05:26:02.150Z,154080.19
2019-06-27T05:28:30.712Z,154136.97
2019-06-27T05:30:59.334Z,154148.89
2019-06-27T05:33:27.859Z,154183.22
2019-06-27T05:35:56.486Z,154183.22
2019-06-27T05:38:24.993Z,154204.34
2019-06-27T05:40:53.534Z,154206.97
2019-06-27T05:43:22.038Z,154206.97
2019-06-27T05:45:50.648Z,154175.28
2019-06-27T05:48:19.141Z,154209.59
2019-06-27T05:50:47.703Z,154228.09
2019-06-27T05:53:16.205Z,154251.84
2019-06-27T05:55:44.797Z,154270.34
2019-06-27T05:58:13.316Z,154328.48
2019-06-27T06:00:41.898Z,154304.72
2019-06-27T06:03:10.408Z,154306.03
2019-06-27T06:05:38.927Z,154348.30
2019-06-27T06:08:07.486Z,154398.56
2019-06-27T06:10:36.089Z,154455.36
2019-06-27T06:13:04.707Z,154492.38
2019-06-27T06:15:34.015Z,154531.98
2019-06-27T06:18:02.593Z,154653.67
2019-06-27T06:20:31.177Z,154830.94
2019-06-27T06:22:59.779Z,154916.92
2019-06-27T06:25:28.276Z,154987.06
2019-06-27T06:27:56.839Z,155022.78
2019-06-27T06:30:25.516Z,155160.55
2019-06-27T06:32:54.033Z,155198.91
2019-06-27T06:35:22.604Z,155192.31
2019-06-27T06:37:51.184Z,155473.25
2019-06-27T06:40:19.823Z,155450.69
2019-06-27T06:42:48.357Z,155388.41
2019-06-27T06:45:17.903Z,155612.41
2019-06-27T06:47:46.485Z,155538.19
2019-06-27T06:50:15.067Z,155316.88
2019-06-27T06:52:43.746Z,155416.20
2019-06-27T06:55:12.425Z,155584.56
2019-06-27T06:57:41.108Z,155673.47
2019-06-27T07:00:10.699Z,155466.63
2019-06-27T07:02:39.339Z,155351.30
2019-06-27T07:05:08.693Z,155600.50
2019-06-27T07:07:37.252Z,155551.44
2019-06-27T07:10:09.553Z,155601.81
2019-06-27T07:12:38.137Z,155605.77
2019-06-27T07:15:08.941Z,155670.83
2019-06-27T07:17:37.491Z,155630.98
2019-06-27T07:20:06.388Z,155548.80
2019-06-27T07:22:34.945Z,155609.78
2019-06-27T07:25:03.857Z,155713.25
2019-06-27T07:27:32.431Z,155764.97
2019-06-27T07:30:00.949Z,155778.22
2019-06-27T07:32:29.493Z,155864.48
2019-06-27T07:34:57.988Z,155766.30
2019-06-27T07:37:26.559Z,155640.28
2019-06-27T07:39:55.140Z,155633.63
2019-06-27T07:42:23.721Z,155857.83
2019-06-27T07:44:52.216Z,155891.03
2019-06-27T07:47:20.750Z,155790.16
2019-06-27T07:49:49.217Z,155827.31
2019-06-27T07:52:17.901Z,155885.72
2019-06-27T07:54:47.919Z,155896.31
2019-06-27T07:57:16.634Z,156026.44
2019-06-27T07:59:45.213Z,155921.56
2019-06-27T08:02:16.207Z,156110.06
2019-06-27T08:04:44.121Z,155928.16
2019-06-27T08:07:12.779Z,155893.69
2019-06-27T08:09:41.297Z,155848.59
2019-06-27T08:12:09.929Z,155901.66
2019-06-27T08:14:38.475Z,156049.00
2019-06-27T08:17:07.022Z,156220.28
2019-06-27T08:19:35.556Z,156056.97
2019-06-27T08:22:04.067Z,156125.97
2019-06-27T08:24:34.540Z,156387.69
2019-06-27T08:27:02.907Z,156258.81
2019-06-27T08:29:31.492Z,156416.92
2019-06-27T08:32:00.030Z,156326.52
2019-06-27T08:34:28.618Z,156196.34
2019-06-27T08:36:57.200Z,156027.77
2019-06-27T08:39:28.510Z,156237.56
2019-06-27T08:41:57.110Z,156228.27
2019-06-27T08:44:25.705Z,156201.62
2019-06-27T08:46:54.295Z,156209.66
2019-06-27T08:49:22.837Z,156250.83
2019-06-27T08:51:51.394Z,156501.95
2019-06-27T08:54:19.955Z,156342.48
2019-06-27T08:56:48.520Z,156357.08
2019-06-27T08:59:17.062Z,156642.91
2019-06-27T09:01:46.050Z,156358.41
2019-06-27T09:04:15.318Z,156521.89
2019-06-27T09:06:43.877Z,156621.59
2019-06-27T09:09:12.463Z,156661.48
2019-06-27T09:11:41.016Z,156821.12
2019-06-27T09:14:09.544Z,156640.22
2019-06-27T09:16:38.054Z,156710.69
2019-06-27T09:19:06.820Z,156666.81
2019-06-27T09:21:35.434Z,156595.03
2019-06-27T09:24:03.993Z,156964.80
2019-06-27T09:26:32.515Z,156948.86
2019-06-27T09:29:01.106Z,156831.77
2019-06-27T09:31:29.606Z,156649.52
2019-06-27T09:33:58.211Z,156629.58
2019-06-27T09:36:26.787Z,156544.47
2019-06-27T09:38:55.385Z,156717.41
2019-06-27T09:41:23.892Z,156847.70
2019-06-27T09:43:53.569Z,156645.56
2019-06-27T09:46:22.229Z,156823.78
2019-06-27T09:48:50.851Z,156766.56
2019-06-27T09:51:19.554Z,156737.36
2019-06-27T09:53:48.120Z,156903.59
2019-06-27T09:56:16.705Z,157089.94
2019-06-27T09:58:45.252Z,157081.94
2019-06-27T10:01:13.866Z,157172.45
2019-06-27T10:03:42.425Z,156986.08
2019-06-27T10:06:11.094Z,157244.39
2019-06-27T10:08:39.607Z,156923.56
2019-06-27T10:11:08.162Z,156871.62
2019-06-27T10:13:36.739Z,156885.02
2019-06-27T10:16:05.290Z,156966.13
2019-06-27T10:18:33.840Z,156881.00
2019-06-27T10:21:02.583Z,156669.47
2019-06-27T10:23:31.111Z,157031.36
2019-06-27T10:25:59.715Z,157113.87
2019-06-27T10:28:28.207Z,156834.41
2019-06-27T10:30:56.763Z,156978.14
2019-06-27T10:33:25.250Z,157100.58
2019-06-27T10:35:53.802Z,156938.22
2019-06-27T10:38:23.496Z,156983.44
2019-06-27T10:40:52.294Z,157046.03
2019-06-27T10:43:20.951Z,157008.69
2019-06-27T10:45:49.464Z,156978.14
2019-06-27T10:48:18.254Z,156774.56
2019-06-27T10:50:46.823Z,156767.89
2019-06-27T10:53:15.396Z,156858.34
2019-06-27T10:55:44.023Z,156680.09
2019-06-27T10:58:12.634Z,156547.13
2019-06-27T11:00:41.244Z,156282.69
2019-06-27T11:03:15.396Z,156391.70
2019-06-27T11:05:40.044Z,156410.25
2019-06-27T11:08:09.449Z,156260.13
2019-06-27T11:10:38.850Z,156246.86
2019-06-27T11:13:07.509Z,156106.05
2019-06-27T11:15:36.071Z,156078.22
2019-06-27T11:18:04.558Z,156072.88
2019-06-27T11:20:33.089Z,156055.59
2019-06-27T11:23:01.745Z,156041.03
2019-06-27T11:25:30.443Z,155999.83
2019-06-27T11:27:58.935Z,155987.89
2019-06-27T11:30:28.276Z,155958.69
2019-06-27T11:32:56.801Z,155970.63
2019-06-27T11:35:25.513Z,155966.66
2019-06-27T11:37:54.011Z,155875.09
2019-06-27T11:40:24.132Z,155883.06
2019-06-27T11:42:53.044Z,155875.09
2019-06-27T11:45:21.711Z,155875.09
2019-06-27T11:47:50.214Z,155832.59
2019-06-27T11:50:20.090Z,155775.59
2019-06-27T11:52:48.792Z,155803.41
2019-06-27T11:55:17.373Z,155803.41
2019-06-27T11:57:45.831Z,155803.41
2019-06-27T12:00:14.814Z,155808.73
2019-06-27T12:02:43.388Z,155766.30
2019-06-27T12:05:12.157Z,155758.33
2019-06-27T12:07:40.667Z,155733.16
2019-06-27T12:10:10.280Z,155782.19
2019-06-27T12:12:38.904Z,155803.41
2019-06-27T12:15:08.145Z,155803.41
2019-06-27T12:17:36.810Z,155845.91
2019-06-27T12:20:09.749Z,155832.59
2019-06-27T12:22:38.371Z,155845.91
2019-06-27T12:25:07.248Z,155877.73
2019-06-27T12:27:35.830Z,155875.09
2019-06-27T12:30:07.102Z,155880.42
2019-06-27T12:32:50.489Z,155888.34
2019-06-27T12:35:07.613Z,155875.09
2019-06-27T12:37:39.557Z,155892.36
2019-06-27T12:40:08.163Z,155831.28
2019-06-27T12:42:36.707Z,155851.23
2019-06-27T12:45:07.418Z,155893.69
2019-06-27T12:47:36.052Z,155917.55
2019-06-27T12:50:06.967Z,155909.58
2019-06-27T12:52:35.537Z,155918.88
2019-06-27T12:55:04.489Z,155925.52
2019-06-27T12:57:33.004Z,155937.45
2019-06-27T13:00:01.542Z,155944.11
2019-06-27T13:02:30.042Z,155930.81
2019-06-27T13:04:58.570Z,155954.72
2019-06-27T13:07:27.132Z,155956.05
2019-06-27T13:09:55.894Z,155970.63
2019-06-27T13:12:24.921Z,155991.84
2019-06-27T13:14:53.600Z,155993.17
2019-06-27T13:17:22.295Z,156014.41
2019-06-27T13:19:50.814Z,156037.06
2019-06-27T13:22:20.115Z,156023.70
2019-06-27T13:24:48.631Z,156018.41
2019-06-27T13:27:18.879Z,156009.13
2019-06-27T13:29:47.388Z,156009.13
2019-06-27T13:32:16.018Z,156018.41
2019-06-27T13:34:44.549Z,155990.53
2019-06-27T13:37:13.223Z,155986.56
2019-06-27T13:39:41.694Z,155978.59
2019-06-27T13:42:10.271Z,155993.17
2019-06-27T13:44:38.876Z,156017.09
2019-06-27T13:47:07.886Z,156034.36
2019-06-27T13:49:36.464Z,156039.70
2019-06-27T13:52:05.151Z,156050.31
2019-06-27T13:54:33.683Z,156074.19
2019-06-27T13:57:02.208Z,156062.25
2019-06-27T13:59:30.828Z,156075.52
2019-06-27T14:01:59.384Z,156076.84
2019-06-27T14:04:27.901Z,156059.63
2019-06-27T14:06:56.437Z,156071.55
2019-06-27T14:09:24.985Z,156090.14
2019-06-27T14:11:53.549Z,156044.98
2019-06-27T14:14:22.024Z,156047.67
2019-06-27T14:16:50.583Z,156051.64
2019-06-27T14:19:19.131Z,156071.55
2019-06-27T14:21:48.970Z,156039.70
2019-06-27T14:24:17.773Z,156026.44
2019-06-27T14:26:46.342Z,156039.70
2019-06-27T14:29:14.923Z,156034.36
2019-06-27T14:31:43.464Z,156031.72
2019-06-27T14:34:12.059Z,156042.34
2019-06-27T14:36:40.566Z,156047.67
2019-06-27T14:39:09.168Z,156056.97
2019-06-27T14:41:37.694Z,156023.70
2019-06-27T14:44:06.426Z,156019.73
2019-06-27T14:46:37.376Z,156039.70
2019-06-27T14:49:05.402Z,156034.36
2019-06-27T14:51:33.913Z,156005.16
2019-06-27T14:54:02.497Z,156006.48
2019-06-27T14:56:31.056Z,156015.77
2019-06-27T14:58:59.575Z,156034.36
2019-06-27T15:01:28.174Z,156017.09
2019-06-27T15:03:56.931Z,156019.73
2019-06-27T15:06:25.455Z,156025.02
2019-06-27T15:08:53.966Z,156021.06
2019-06-27T15:11:22.549Z,156005.16
2019-06-27T15:13:51.169Z,156015.77
2019-06-27T15:16:19.684Z,156044.98
2019-06-27T15:18:48.243Z,156039.70
2019-06-27T15:21:16.729Z,156010.44
2019-06-27T15:23:45.267Z,156018.41
2019-06-27T15:26:13.818Z,156026.44
2019-06-27T15:28:42.438Z,156011.77
2019-06-27T15:31:11.031Z,156023.70
2019-06-27T15:33:39.601Z,156034.36
2019-06-27T15:36:08.164Z,156038.38
2019-06-27T15:38:36.706Z,156052.95
2019-06-27T15:41:05.287Z,156039.70
2019-06-27T15:43:33.929Z,156042.34
2019-06-27T15:46:02.658Z,156050.31
2019-06-27T15:48:31.233Z,156050.31
2019-06-27T15:50:59.769Z,156063.58
2019-06-27T15:53:28.371Z,156052.95
2019-06-27T15:55:56.879Z,156062.25
2019-06-27T15:58:25.386Z,156058.30
2019-06-27T16:00:53.957Z,156058.30
2019-06-27T16:03:23.990Z,156031.72
2019-06-27T16:06:08.228Z,156023.70
2019-06-27T16:08:22.830Z,156018.41
2019-06-27T16:10:51.468Z,155994.55
2019-06-27T16:13:19.956Z,156013.08
2019-06-27T16:15:48.510Z,156023.70
2019-06-27T16:18:17.030Z,156011.77
2019-06-27T16:20:45.534Z,155991.84
2019-06-27T16:23:14.164Z,155978.59
2019-06-27T16:25:42.707Z,155957.36
2019-06-27T16:28:11.184Z,155969.30
2019-06-27T16:30:39.805Z,155956.05
2019-06-27T16:33:08.436Z,155961.33
2019-06-27T16:35:36.988Z,155958.69
2019-06-27T16:38:05.647Z,155969.30
2019-06-27T16:40:34.187Z,155962.69
2019-06-27T16:43:02.639Z,155971.94
2019-06-27T16:45:31.316Z,155936.12
2019-06-27T16:48:00.190Z,155936.12
2019-06-27T16:50:28.711Z,155929.48
2019-06-27T16:52:57.339Z,155920.19
2019-06-27T16:55:25.942Z,155883.06
2019-06-27T16:57:54.577Z,155869.81
2019-06-27T17:00:23.560Z,155864.48
2019-06-27T17:02:52.517Z,155864.48
2019-06-27T17:05:21.377Z,155863.16
2019-06-27T17:07:49.953Z,155848.59
2019-06-27T17:10:19.515Z,155845.91
2019-06-27T17:12:48.063Z,155845.91
2019-06-27T17:15:18.179Z,155833.92
2019-06-27T17:17:46.677Z,155839.25
2019-06-27T17:20:15.981Z,155827.31
2019-06-27T17:22:44.434Z,155792.80
2019-06-27T17:25:13.218Z,155763.61
2019-06-27T17:27:41.870Z,155754.38
2019-06-27T17:30:12.710Z,155747.72
2019-06-27T17:32:41.210Z,155726.50
2019-06-27T17:35:10.155Z,155723.86
2019-06-27T17:37:38.621Z,155729.14
2019-06-27T17:40:09.983Z,155707.92
2019-06-27T17:42:37.966Z,155701.28
2019-06-27T17:45:08.011Z,155697.31
2019-06-27T17:47:37.404Z,155674.78
2019-06-27T17:50:06.464Z,155648.19
2019-06-27T17:52:34.961Z,155662.86
2019-06-27T17:55:03.728Z,155654.89
2019-06-27T17:57:32.288Z,155650.88
2019-06-27T18:00:00.830Z,155646.88
2019-06-27T18:02:29.379Z,155620.38
2019-06-27T18:04:57.842Z,155615.06
2019-06-27T18:07:26.387Z,155612.41
2019-06-27T18:09:54.999Z,155597.84
2019-06-27T18:12:23.557Z,155571.31
2019-06-27T18:14:52.075Z,155539.50
2019-06-27T18:17:32.304Z,155532.86
2019-06-27T18:19:53.499Z,155540.83
2019-06-27T18:22:22.045Z,155527.59
2019-06-27T18:24:50.606Z,155509.03
2019-06-27T18:27:19.321Z,155495.78
2019-06-27T18:29:48.263Z,155474.58
2019-06-27T18:32:16.946Z,155453.33
2019-06-27T18:34:45.453Z,155450.69
2019-06-27T18:37:28.769Z,155422.84
2019-06-27T18:39:44.312Z,155406.92
2019-06-27T18:42:12.863Z,155387.05
2019-06-27T18:44:41.381Z,155367.22
2019-06-27T18:47:09.980Z,155355.25
2019-06-27T18:49:38.499Z,155326.14
2019-06-27T18:52:07.151Z,155320.81
2019-06-27T18:54:35.698Z,155320.81
2019-06-27T18:57:04.416Z,155310.22
2019-06-27T18:59:32.941Z,155279.75
2019-06-27T19:02:01.645Z,155249.23
2019-06-27T19:04:30.219Z,155246.61
2019-06-27T19:06:58.805Z,155220.09
2019-06-27T19:09:27.371Z,155217.45
2019-06-27T19:11:55.982Z,155198.91
2019-06-27T19:14:24.502Z,155192.31
2019-06-27T19:16:53.162Z,155144.63
2019-06-27T19:19:29.283Z,155135.36
2019-06-27T19:21:59.551Z,155112.86
2019-06-27T19:24:31.383Z,155107.59
2019-06-27T19:27:00.139Z,155119.50
2019-06-27T19:29:28.653Z,155082.41
2019-06-27T19:31:57.191Z,155077.13
2019-06-27T19:34:28.487Z,155024.14
2019-06-27T19:36:57.229Z,155048.00
2019-06-27T19:39:27.243Z,155002.97
2019-06-27T19:41:57.176Z,154997.66
2019-06-27T19:44:28.969Z,154976.47
2019-06-27T19:46:57.539Z,154963.25
2019-06-27T19:49:26.077Z,154979.11
2019-06-27T19:51:54.602Z,154979.11
2019-06-27T19:54:23.136Z,154950.03
2019-06-27T19:56:51.680Z,154944.72
2019-06-27T19:59:20.355Z,154948.67
2019-06-27T20:01:48.822Z,154928.81
2019-06-27T20:04:17.345Z,154893.13
2019-06-27T20:06:45.890Z,154890.48
2019-06-27T20:09:14.471Z,154877.27
2019-06-27T20:11:42.936Z,154858.73
2019-06-27T20:14:11.535Z,154854.73
2019-06-27T20:16:41.097Z,154825.63
2019-06-27T20:19:09.652Z,154820.30
2019-06-27T20:21:38.143Z,154817.67
2019-06-27T20:24:06.703Z,154777.98
2019-06-27T20:26:35.174Z,154775.34
2019-06-27T20:29:03.737Z,154781.94
2019-06-27T20:31:32.248Z,154764.77
2019-06-27T20:34:02.469Z,154746.25
2019-06-27T20:36:31.004Z,154727.72
2019-06-27T20:38:59.511Z,154713.19
2019-06-27T20:41:29.421Z,154699.97
2019-06-27T20:43:58.132Z,154670.88
2019-06-27T20:46:26.648Z,154669.56
2019-06-27T20:48:55.228Z,154669.56
2019-06-27T20:51:23.748Z,154643.09
2019-06-27T20:53:52.255Z,154643.09
2019-06-27T20:56:20.752Z,154651.03
2019-06-27T20:58:49.348Z,154632.52
2019-06-27T21:01:17.859Z,154606.09
2019-06-27T21:03:46.426Z,154592.80
2019-06-27T21:06:14.946Z,154576.95
2019-06-27T21:08:51.082Z,154579.59
2019-06-27T21:11:13.836Z,154567.70
2019-06-27T21:13:42.465Z,154563.70
2019-06-27T21:16:11.052Z,154549.19
2019-06-27T21:18:39.603Z,154566.37
2019-06-27T21:21:08.180Z,154555.81
2019-06-27T21:23:36.738Z,154539.94
2019-06-27T21:26:05.323Z,154549.19
2019-06-27T21:28:33.833Z,154510.84
2019-06-27T21:31:02.379Z,154529.36
2019-06-27T21:33:30.895Z,154505.58
2019-06-27T21:35:59.455Z,154500.27
2019-06-27T21:38:27.928Z,154491.02
2019-06-27T21:40:56.549Z,154469.88
2019-06-27T21:43:25.148Z,154452.72
2019-06-27T21:45:53.651Z,154424.95
2019-06-27T21:48:22.188Z,154438.16
2019-06-27T21:50:50.771Z,154440.84
2019-06-27T21:53:19.279Z,154428.91
2019-06-27T21:55:47.848Z,154423.64
2019-06-27T21:58:16.342Z,154405.13
2019-06-27T22:00:45.613Z,154394.56
2019-06-27T22:06:08.546Z,154361.50
2019-06-27T22:08:37.047Z,154346.98
2019-06-27T22:11:05.631Z,154346.98
2019-06-27T22:13:34.079Z,154331.11
2019-06-27T22:16:02.700Z,154319.23
2019-06-27T22:18:31.225Z,154317.91
2019-06-27T22:20:59.755Z,154300.72
2019-06-27T22:23:28.261Z,154302.05
2019-06-27T22:25:56.805Z,154288.84
2019-06-27T22:28:25.383Z,154283.59
2019-06-27T22:30:53.932Z,154291.47
2019-06-27T22:33:22.418Z,154254.53
2019-06-27T22:35:50.936Z,154236.03
2019-06-27T22:38:37.284Z,154271.66
2019-06-27T22:41:24.037Z,154255.84
2019-06-27T22:44:10.796Z,154259.78
2019-06-27T22:46:57.092Z,154280.91
2019-06-27T22:49:25.824Z,154265.09
2019-06-27T22:52:12.176Z,154242.64
2019-06-27T22:54:42.397Z,154243.97
2019-06-27T22:57:12.758Z,154241.28
2019-06-27T22:59:41.345Z,154255.84
2019-06-27T23:02:09.977Z,154242.64
2019-06-27T23:04:38.486Z,154217.53
2019-06-27T23:07:07.026Z,154213.58
2019-06-27T23:09:35.515Z,154230.72
2019-06-27T23:12:04.041Z,154185.84
2019-06-27T23:14:32.568Z,154175.28
2019-06-27T23:17:01.107Z,154175.28
2019-06-27T23:19:29.599Z,154154.16
2019-06-27T23:21:58.194Z,154162.09
2019-06-27T23:24:26.716Z,154140.97
2019-06-27T23:26:56.840Z,154150.22
2019-06-27T23:29:25.468Z,154167.34
2019-06-27T23:31:54.154Z,154138.34
2019-06-27T23:34:22.669Z,154130.41
2019-06-27T23:36:51.287Z,154139.66
2019-06-27T23:39:19.835Z,154138.34
2019-06-27T23:41:48.369Z,154138.34
2019-06-27T23:44:16.839Z,154096.05
2019-06-27T23:46:45.382Z,154082.81
2019-06-27T23:49:13.892Z,154056.44
2019-06-27T23:51:42.501Z,154044.56
2019-06-27T23:54:11.141Z,154076.25
2019-06-27T23:56:39.620Z,154085.44
2019-06-27T23:59:08.121Z,154080.19
